Ruby_indah — 9VND — position and weather

sailwx.info

Track history (hours):
 
Tides and Currents Weather Stations Pressure Air Temp Water Temp Dewpoint Dewpoint Depression Visibility Wind Speed Wind Dir Waves Ship Positions

Ruby_indah

Last reported at 2014-Nov-08 10:33 UTC. Time now 2014-Nov-29 05:01 UTC.
Position N 37°43' E 122°33'.
Warning: this ship's position is 20 days out of date.

Length 229 m; draft 7 m.

Type: Cargo ship. MMSI: 564748000.

Date/timePositionNaut miles runAvg speedWind from/ knotsBaromVisibWave heightAir tempDewpointWater temp
2014-Nov-08 10:33N 37°43' E 122°33'1413.4
2014-Nov-08 09:29N 37°46' E 122°16'1314.1
2014-Nov-08 08:33N 37°49' E 121°60'1514.6
2014-Nov-08 07:33N 37°51' E 121°41'1514.6
2014-Nov-08 06:33N 37°54' E 121°23'1414.3
2014-Nov-08 05:33N 37°56' E 121°05'  
2014-Nov-03 19:33N 37°56' E 121°20'611.8
2014-Nov-03 19:05N 37°55' E 121°27'712.1
2014-Nov-03 18:30N 37°54' E 121°35'1215.5
2014-Nov-03 17:44N 37°52' E 121°50'0 0.6
2014-Nov-03 17:30N 37°52' E 121°50'1612.3
2014-Nov-03 16:10N 37°49' E 122°11'  
Track history (hours):
 
Tides and Currents Weather Stations Pressure Air Temp Water Temp Dewpoint Dewpoint Depression Visibility Wind Speed Wind Dir Waves Ship Positions

Ruby_indah

Last reported at 2014-Nov-08 10:33 UTC. Time now 2014-Nov-29 05:01 UTC.
Position N 37°43' E 122°33'.
Warning: this ship's position is 20 days out of date.

Length 229 m; draft 7 m.

Type: Cargo ship. MMSI: 564748000.

Date/timePositionNaut miles runAvg speedWind from/ knotsBaromVisibWave heightAir tempDewpointWater temp
2014-Nov-08 10:33N 37°43' E 122°33'1413.4
2014-Nov-08 09:29N 37°46' E 122°16'1314.1
2014-Nov-08 08:33N 37°49' E 121°60'1514.6
2014-Nov-08 07:33N 37°51' E 121°41'1514.6
2014-Nov-08 06:33N 37°54' E 121°23'1414.3
2014-Nov-08 05:33N 37°56' E 121°05'  
2014-Nov-03 19:33N 37°56' E 121°20'611.8
2014-Nov-03 19:05N 37°55' E 121°27'712.1
2014-Nov-03 18:30N 37°54' E 121°35'1215.5
2014-Nov-03 17:44N 37°52' E 121°50'0 0.6
2014-Nov-03 17:30N 37°52' E 121°50'1612.3
2014-Nov-03 16:10N 37°49' E 122°11'  

Dump ship's entire track history